Time;durP1;ratioP1;P1;durP2;ratioP2;P2;SDS_P1;SDS_P2;PMS_P1;PMS_P2;Temp;Humidity;BMP_temperature;BMP_pressure;BME280_temperature;BME280_humidity;BME280_pressure;Samples;Min_cycle;Max_cycle;Signal;HPM_P1;HPM_P2
2023/10/09 00:00:35;;;;;;;33.50;12.60;;;;;;;;;;5027033;28;20052;-73
2023/10/09 00:02:50;;;;;;;34.65;13.35;;;;;;;;;;5028141;28;20049;-73
2023/10/09 00:05:23;;;;;;;26.73;11.53;;;;;;;;;;5028188;28;20018;-73
2023/10/09 00:07:48;;;;;;;30.30;12.18;;;;;;;;;;5028623;28;20786;-73
2023/10/09 00:10:14;;;;;;;39.63;12.93;;;;;;;;;;5027508;28;20035;-73
2023/10/09 00:12:43;;;;;;;31.55;11.18;;;;;;;;;;5035486;28;20029;-73
2023/10/09 00:15:12;;;;;;;29.08;9.70;;;;;;;;;;5034842;28;20074;-73
2023/10/09 00:17:38;;;;;;;24.77;9.93;;;;;;;;;;5040183;28;20017;-73
2023/10/09 00:20:17;;;;;;;29.92;11.15;;;;;;;;;;5040509;28;20025;-73
2023/10/09 00:22:46;;;;;;;25.92;10.50;;;;;;;;;;5036339;28;20112;-73
2023/10/09 00:25:12;;;;;;;22.35;10.40;;;;;;;;;;5028760;28;20021;-73
2023/10/09 00:27:44;;;;;;;23.02;10.32;;;;;;;;;;5024368;28;20492;-73
2023/10/09 00:30:11;;;;;;;25.02;9.77;;;;;;;;;;5030036;28;20018;-73
2023/10/09 00:32:37;;;;;;;22.33;9.68;;;;;;;;;;5017536;28;20025;-73
2023/10/09 00:35:35;;;;;;;24.23;9.60;;;;;;;;;;5021111;28;20018;-73
2023/10/09 00:37:47;;;;;;;27.52;9.55;;;;;;;;;;5020940;28;20495;-73
2023/10/09 00:40:20;;;;;;;24.97;9.20;;;;;;;;;;5026793;28;20022;-73
2023/10/09 00:42:45;;;;;;;26.30;10.88;;;;;;;;;;5015620;28;20352;-73
2023/10/09 00:45:16;;;;;;;21.55;9.65;;;;;;;;;;5025791;28;20606;-73
2023/10/09 00:47:41;;;;;;;25.00;9.65;;;;;;;;;;5022619;28;20022;-73
2023/10/09 00:52:40;;;;;;;28.77;8.80;;;;;;;;;;5020198;28;20017;-73
2023/10/09 00:55:13;;;;;;;29.92;9.65;;;;;;;;;;5034483;28;20014;-73
2023/10/09 00:57:40;;;;;;;21.95;10.15;;;;;;;;;;5021704;28;20010;-73
2023/10/09 01:00:13;;;;;;;21.92;9.50;;;;;;;;;;5018817;28;20068;-73
2023/10/09 01:02:42;;;;;;;22.58;10.20;;;;;;;;;;5017204;28;20105;-73
2023/10/09 01:05:20;;;;;;;21.50;9.32;;;;;;;;;;5042577;28;20037;-73
2023/10/09 01:07:46;;;;;;;33.25;8.95;;;;;;;;;;5032327;28;20534;-73
2023/10/09 01:10:11;;;;;;;22.65;8.90;;;;;;;;;;5035188;28;20041;-73
2023/10/09 01:12:43;;;;;;;26.77;8.52;;;;;;;;;;5039300;28;20017;-73
2023/10/09 01:15:09;;;;;;;25.15;10.75;;;;;;;;;;5032140;28;20032;-73
2023/10/09 01:17:39;;;;;;;24.23;9.15;;;;;;;;;;5030707;28;20025;-73
2023/10/09 01:20:05;;;;;;;18.45;8.15;;;;;;;;;;5035198;28;20027;-73
2023/10/09 01:22:30;;;;;;;18.48;8.20;;;;;;;;;;5047835;28;20025;-73
2023/10/09 01:24:55;;;;;;;16.73;8.35;;;;;;;;;;5034714;28;20025;-73
2023/10/09 01:27:24;;;;;;;18.40;8.33;;;;;;;;;;5033620;28;20037;-73
2023/10/09 01:29:50;;;;;;;17.67;7.35;;;;;;;;;;5026573;28;20630;-73
2023/10/09 01:32:19;;;;;;;36.90;9.18;;;;;;;;;;5031174;28;20064;-73
2023/10/09 01:34:48;;;;;;;20.67;8.38;;;;;;;;;;5029912;28;20013;-73
2023/10/09 01:37:25;;;;;;;26.48;9.27;;;;;;;;;;5030783;28;20025;-73
2023/10/09 01:39:52;;;;;;;21.10;8.07;;;;;;;;;;5028675;28;20195;-73
2023/10/09 01:44:55;;;;;;;21.00;8.20;;;;;;;;;;5028744;28;20075;-73
2023/10/09 01:47:21;;;;;;;18.42;7.35;;;;;;;;;;5030977;28;20424;-73
2023/10/09 01:49:49;;;;;;;22.83;8.07;;;;;;;;;;5029797;28;20044;-73
2023/10/09 01:52:18;;;;;;;27.55;7.93;;;;;;;;;;5030926;28;20009;-73
2023/10/09 01:54:49;;;;;;;18.10;7.80;;;;;;;;;;5028181;28;20387;-73
2023/10/09 01:57:16;;;;;;;18.52;7.95;;;;;;;;;;5028223;28;20029;-73
2023/10/09 01:59:49;;;;;;;26.50;8.15;;;;;;;;;;5029143;28;20036;-73
2023/10/09 02:02:35;;;;;;;20.83;8.25;;;;;;;;;;5037805;28;20032;-73
2023/10/09 02:07:40;;;;;;;20.48;8.05;;;;;;;;;;5020774;28;20026;-73
2023/10/09 02:12:57;;;;;;;29.98;8.43;;;;;;;;;;5034975;28;20028;-73
2023/10/09 02:16:13;;;;;;;19.67;7.60;;;;;;;;;;5031217;28;20017;-73
2023/10/09 02:21:01;;;;;;;22.25;9.07;;;;;;;;;;5028087;28;20403;-73
2023/10/09 02:23:30;;;;;;;12.68;6.85;;;;;;;;;;5022820;28;20020;-73
2023/10/09 02:26:02;;;;;;;20.08;8.88;;;;;;;;;;5023705;28;20025;-73
2023/10/09 02:28:32;;;;;;;22.05;7.82;;;;;;;;;;5028520;28;20018;-73
2023/10/09 02:31:00;;;;;;;19.20;7.88;;;;;;;;;;5026593;28;20021;-73
2023/10/09 02:33:28;;;;;;;23.02;7.78;;;;;;;;;;5027210;28;20104;-73
2023/10/09 02:35:54;;;;;;;17.45;7.63;;;;;;;;;;5027415;28;20087;-73
2023/10/09 02:38:23;;;;;;;25.80;8.40;;;;;;;;;;5027680;28;20025;-73
2023/10/09 02:43:50;;;;;;;21.85;7.57;;;;;;;;;;5025145;28;20021;-73
2023/10/09 02:46:19;;;;;;;15.40;7.78;;;;;;;;;;5022503;28;20618;-73
2023/10/09 02:48:48;;;;;;;24.27;8.15;;;;;;;;;;5028733;28;20144;-73
2023/10/09 02:51:22;;;;;;;17.95;7.63;;;;;;;;;;5027873;28;20017;-73
2023/10/09 02:53:49;;;;;;;22.00;6.90;;;;;;;;;;5029483;28;20472;-73
2023/10/09 02:56:17;;;;;;;19.90;7.20;;;;;;;;;;5027440;28;20445;-73
2023/10/09 02:58:43;;;;;;;17.95;7.78;;;;;;;;;;5026457;28;20042;-73
2023/10/09 03:01:13;;;;;;;19.33;7.82;;;;;;;;;;5022527;28;20026;-73
2023/10/09 03:03:38;;;;;;;16.77;7.80;;;;;;;;;;5028995;28;20025;-73
2023/10/09 03:06:10;;;;;;;15.02;7.10;;;;;;;;;;5026766;28;20029;-73
2023/10/09 03:08:36;;;;;;;20.58;7.75;;;;;;;;;;5029905;28;20373;-73
2023/10/09 03:11:02;;;;;;;25.98;6.90;;;;;;;;;;5026069;28;20123;-73
2023/10/09 03:13:28;;;;;;;16.17;7.13;;;;;;;;;;5029640;28;20437;-73
2023/10/09 03:15:54;;;;;;;18.70;7.43;;;;;;;;;;5029394;28;20266;-73
2023/10/09 03:18:20;;;;;;;23.20;8.20;;;;;;;;;;5030049;28;20100;-73
2023/10/09 03:20:47;;;;;;;20.75;7.38;;;;;;;;;;5026684;28;20025;-73
2023/10/09 03:23:14;;;;;;;18.40;7.57;;;;;;;;;;5029489;28;20022;-73
2023/10/09 03:25:39;;;;;;;15.25;8.02;;;;;;;;;;5029533;28;20061;-73
2023/10/09 03:28:04;;;;;;;24.30;7.97;;;;;;;;;;5027279;28;20085;-73
2023/10/09 03:30:32;;;;;;;17.60;8.48;;;;;;;;;;5021759;28;20022;-73
2023/10/09 03:33:00;;;;;;;15.40;7.13;;;;;;;;;;5022921;28;20030;-73
2023/10/09 03:35:27;;;;;;;17.92;7.85;;;;;;;;;;5026111;28;20009;-73
2023/10/09 03:37:57;;;;;;;13.57;7.47;;;;;;;;;;5016097;28;20013;-73
2023/10/09 03:40:23;;;;;;;23.23;8.13;;;;;;;;;;5022043;28;20056;-73
2023/10/09 03:42:48;;;;;;;15.68;6.32;;;;;;;;;;5019817;28;20069;-73
2023/10/09 03:45:24;;;;;;;16.80;6.78;;;;;;;;;;5026444;28;20025;-73
2023/10/09 03:47:53;;;;;;;21.70;7.10;;;;;;;;;;5029969;28;20079;-73
2023/10/09 03:50:26;;;;;;;16.20;6.95;;;;;;;;;;5028960;28;20013;-73
2023/10/09 03:52:51;;;;;;;18.38;7.43;;;;;;;;;;5024663;28;20021;-73
2023/10/09 03:55:17;;;;;;;16.92;6.95;;;;;;;;;;5025601;28;20025;-73
2023/10/09 03:57:45;;;;;;;14.03;6.40;;;;;;;;;;5019508;28;20060;-73
2023/10/09 04:00:27;;;;;;;17.75;7.50;;;;;;;;;;5022489;28;20284;-73
2023/10/09 04:02:52;;;;;;;19.55;7.60;;;;;;;;;;5028542;28;20021;-73
2023/10/09 04:05:17;;;;;;;20.50;7.57;;;;;;;;;;5032947;28;20048;-73
2023/10/09 04:07:43;;;;;;;19.52;6.88;;;;;;;;;;5031744;28;20025;-73
2023/10/09 04:12:53;;;;;;;18.52;7.10;;;;;;;;;;5032232;28;20024;-73
2023/10/09 04:15:22;;;;;;;15.02;6.90;;;;;;;;;;5030467;28;20022;-73
2023/10/09 04:17:50;;;;;;;18.65;6.70;;;;;;;;;;5031249;28;20021;-73
2023/10/09 04:23:04;;;;;;;17.80;7.55;;;;;;;;;;5034442;28;20499;-73
2023/10/09 04:25:38;;;;;;;14.32;6.65;;;;;;;;;;5028753;28;20075;-73
2023/10/09 04:28:24;;;;;;;19.63;7.55;;;;;;;;;;5028631;28;20013;-73
2023/10/09 04:30:55;;;;;;;18.35;7.38;;;;;;;;;;5021635;28;20029;-73
2023/10/09 04:41:32;;;;;;;18.27;7.28;;;;;;;;;;5034803;28;20027;-73
2023/10/09 04:44:18;;;;;;;18.45;7.30;;;;;;;;;;5028743;28;20117;-73
2023/10/09 04:47:17;;;;;;;16.40;6.72;;;;;;;;;;5026750;28;20025;-73
2023/10/09 04:49:34;;;;;;;19.23;7.72;;;;;;;;;;5029985;28;20499;-73
2023/10/09 04:52:07;;;;;;;17.63;6.65;;;;;;;;;;5022108;28;20053;-73
2023/10/09 04:55:02;;;;;;;18.27;7.03;;;;;;;;;;5029078;28;20025;-73
2023/10/09 04:57:26;;;;;;;14.15;6.82;;;;;;;;;;5032402;28;20028;-73
2023/10/09 04:59:51;;;;;;;15.40;7.30;;;;;;;;;;5029679;28;20029;-73
2023/10/09 05:02:19;;;;;;;13.18;6.88;;;;;;;;;;5024189;28;20036;-73
2023/10/09 05:04:47;;;;;;;20.10;7.45;;;;;;;;;;5030798;28;20028;-73
2023/10/09 05:07:36;;;;;;;17.17;7.18;;;;;;;;;;5027802;28;20101;-73
2023/10/09 05:10:14;;;;;;;17.98;7.40;;;;;;;;;;5029702;28;20005;-73
2023/10/09 05:12:46;;;;;;;24.90;6.40;;;;;;;;;;5024804;28;20014;-73
2023/10/09 05:15:13;;;;;;;16.67;6.88;;;;;;;;;;5021841;28;20052;-73
2023/10/09 05:17:39;;;;;;;20.33;6.90;;;;;;;;;;5028605;28;20622;-73
2023/10/09 05:22:59;;;;;;;17.13;6.95;;;;;;;;;;5026780;28;20079;-73
2023/10/09 05:26:11;;;;;;;15.48;6.85;;;;;;;;;;5024560;28;20013;-73
2023/10/09 05:28:30;;;;;;;13.18;6.30;;;;;;;;;;5026986;28;20123;-73
2023/10/09 05:31:08;;;;;;;12.75;6.80;;;;;;;;;;5025438;28;20022;-73
2023/10/09 05:33:37;;;;;;;18.25;7.22;;;;;;;;;;5022196;28;20468;-73
2023/10/09 05:38:58;;;;;;;17.08;6.57;;;;;;;;;;5024328;28;20343;-73
2023/10/09 05:49:46;;;;;;;16.80;7.13;;;;;;;;;;5022315;28;20566;-73
2023/10/09 06:08:24;;;;;;;15.88;7.03;;;;;;;;;;5031300;28;19916;-73
2023/10/09 06:11:05;;;;;;;15.93;6.85;;;;;;;;;;5028370;28;20014;-73
2023/10/09 06:13:37;;;;;;;17.52;7.88;;;;;;;;;;5032208;28;20025;-73
2023/10/09 06:19:07;;;;;;;29.83;6.75;;;;;;;;;;5010236;28;20038;-71
2023/10/09 06:24:17;;;;;;;28.15;8.27;;;;;;;;;;5035218;28;20549;-72
2023/10/09 06:27:11;;;;;;;18.15;7.63;;;;;;;;;;5028160;28;20030;-71
2023/10/09 06:32:34;;;;;;;19.02;7.30;;;;;;;;;;5028371;28;20052;-71
2023/10/09 06:35:18;;;;;;;14.20;6.25;;;;;;;;;;5024921;28;20028;-72
2023/10/09 06:43:26;;;;;;;18.15;7.25;;;;;;;;;;5031855;28;20512;-72
2023/10/09 06:45:55;;;;;;;20.60;7.10;;;;;;;;;;5032611;28;20034;-72
2023/10/09 06:58:54;;;;;;;25.27;7.65;;;;;;;;;;5021313;28;20041;-71
2023/10/09 07:01:25;;;;;;;25.00;7.43;;;;;;;;;;5022013;28;20018;-72
2023/10/09 07:03:53;;;;;;;;;;;;;;;;;;5030763;28;20401;-71
2023/10/09 07:06:47;;;;;;;19.70;7.43;;;;;;;;;;5027202;28;19913;-72
2023/10/09 07:14:08;;;;;;;16.42;7.75;;;;;;;;;;5022058;28;20439;-71
2023/10/09 07:16:56;;;;;;;16.73;7.00;;;;;;;;;;5027245;28;20017;-71
2023/10/09 07:22:03;;;;;;;16.05;7.70;;;;;;;;;;5029034;28;20129;-71
2023/10/09 07:24:43;;;;;;;14.20;6.47;;;;;;;;;;5030261;28;20021;-72
2023/10/09 07:27:12;;;;;;;25.67;7.80;;;;;;;;;;5032859;28;20029;-72
2023/10/09 07:29:47;;;;;;;16.20;6.50;;;;;;;;;;5025006;28;20030;-72
2023/10/09 07:32:19;;;;;;;28.70;7.85;;;;;;;;;;5029245;28;20038;-72
2023/10/09 07:34:54;;;;;;;21.83;7.85;;;;;;;;;;5029741;28;20022;-72
2023/10/09 07:37:30;;;;;;;22.70;8.18;;;;;;;;;;5039766;28;20029;-72
2023/10/09 07:39:58;;;;;;;15.50;7.28;;;;;;;;;;5046529;28;20633;-72
2023/10/09 07:42:37;;;;;;;24.85;8.73;;;;;;;;;;5037711;28;20017;-73
2023/10/09 07:48:04;;;;;;;17.23;7.78;;;;;;;;;;5036745;28;20036;-73
2023/10/09 07:50:49;;;;;;;16.45;7.55;;;;;;;;;;5036465;28;20404;-73
2023/10/09 07:53:17;;;;;;;16.25;8.10;;;;;;;;;;5042083;28;20541;-73
2023/10/09 07:55:53;;;;;;;17.73;8.07;;;;;;;;;;5046828;28;20013;-73
2023/10/09 07:58:24;;;;;;;20.23;7.72;;;;;;;;;;5025925;28;20017;-73
2023/10/09 08:01:06;;;;;;;21.88;8.70;;;;;;;;;;5029970;28;20504;-73
2023/10/09 08:03:33;;;;;;;20.60;7.70;;;;;;;;;;5033354;28;20021;-73
2023/10/09 08:06:29;;;;;;;17.13;7.70;;;;;;;;;;5041701;28;20476;-73
2023/10/09 08:09:17;;;;;;;22.27;8.25;;;;;;;;;;5039720;28;20033;-74
2023/10/09 08:11:59;;;;;;;28.58;8.45;;;;;;;;;;5024658;28;20030;-74
2023/10/09 08:16:46;;;;;;;20.75;8.45;;;;;;;;;;5041527;28;20494;-74
2023/10/09 08:24:41;;;;;;;19.45;8.43;;;;;;;;;;5035425;28;20075;-74
2023/10/09 08:30:11;;;;;;;21.88;8.20;;;;;;;;;;5037761;28;20071;-74
2023/10/09 08:32:42;;;;;;;24.58;8.30;;;;;;;;;;5037809;28;20020;-74
2023/10/09 08:35:29;;;;;;;18.17;8.02;;;;;;;;;;5035305;28;20028;-74
2023/10/09 08:37:53;;;;;;;20.83;6.93;;;;;;;;;;5027710;28;20116;-71
2023/10/09 08:40:19;;;;;;;18.23;7.45;;;;;;;;;;5030294;28;20113;-71
2023/10/09 08:42:51;;;;;;;17.45;6.47;;;;;;;;;;5029817;28;20444;-71
2023/10/09 08:45:22;;;;;;;18.23;8.13;;;;;;;;;;5029285;28;20531;-71
2023/10/09 08:47:49;;;;;;;21.23;8.43;;;;;;;;;;5023247;28;20029;-71
2023/10/09 08:50:14;;;;;;;18.42;8.48;;;;;;;;;;5020105;28;20071;-71
2023/10/09 08:52:40;;;;;;;25.40;9.35;;;;;;;;;;5030063;28;20025;-71
2023/10/09 08:55:05;;;;;;;19.30;7.90;;;;;;;;;;5024647;28;20041;-71
2023/10/09 08:57:31;;;;;;;25.73;9.70;;;;;;;;;;5034776;28;20507;-71
2023/10/09 08:59:56;;;;;;;23.92;8.02;;;;;;;;;;5036315;28;20538;-71
2023/10/09 09:02:21;;;;;;;21.77;8.13;;;;;;;;;;5042637;28;20025;-71
2023/10/09 09:04:50;;;;;;;19.30;7.93;;;;;;;;;;5038305;28;20032;-71
2023/10/09 09:07:39;;;;;;;14.32;8.35;;;;;;;;;;5034063;28;20308;-71
2023/10/09 09:10:17;;;;;;;15.60;7.40;;;;;;;;;;5025788;28;20123;-72
2023/10/09 09:12:43;;;;;;;21.30;7.03;;;;;;;;;;5030085;28;20029;-72
2023/10/09 09:15:18;;;;;;;16.10;6.60;;;;;;;;;;5030641;28;20400;-72
2023/10/09 09:17:45;;;;;;;18.13;7.18;;;;;;;;;;5031679;28;20029;-72
2023/10/09 09:20:22;;;;;;;26.13;7.93;;;;;;;;;;5037914;28;20101;-71
2023/10/09 09:22:52;;;;;;;18.35;7.57;;;;;;;;;;5038733;28;20020;-71
2023/10/09 09:25:17;;;;;;;17.08;6.70;;;;;;;;;;5029002;28;20022;-71
2023/10/09 09:27:52;;;;;;;16.48;7.47;;;;;;;;;;5026799;28;20151;-71
2023/10/09 09:30:24;;;;;;;15.00;5.80;;;;;;;;;;5034815;28;20028;-72
2023/10/09 09:33:15;;;;;;;11.95;4.40;;;;;;;;;;5033017;28;20029;-72
2023/10/09 09:35:35;;;;;;;14.68;6.47;;;;;;;;;;5033831;28;20476;-71
2023/10/09 09:38:04;;;;;;;14.02;7.10;;;;;;;;;;5034603;28;20025;-71
2023/10/09 09:40:30;;;;;;;15.05;6.43;;;;;;;;;;5030858;28;20025;-72
2023/10/09 09:43:04;;;;;;;11.65;5.32;;;;;;;;;;5039568;28;20032;-71
2023/10/09 09:45:32;;;;;;;15.18;6.43;;;;;;;;;;5031855;28;20388;-71
2023/10/09 09:48:01;;;;;;;16.95;6.57;;;;;;;;;;5028622;28;20048;-72
2023/10/09 09:50:29;;;;;;;16.08;6.25;;;;;;;;;;5026047;28;20010;-71
2023/10/09 09:52:54;;;;;;;13.32;5.53;;;;;;;;;;5027250;28;20124;-71
2023/10/09 09:55:22;;;;;;;21.38;7.10;;;;;;;;;;5030779;28;20523;-71
2023/10/09 09:57:51;;;;;;;13.43;5.85;;;;;;;;;;5033553;28;20025;-71
2023/10/09 10:00:29;;;;;;;19.20;6.20;;;;;;;;;;5027148;28;20111;-71
2023/10/09 10:02:57;;;;;;;13.00;6.15;;;;;;;;;;5042644;28;20339;-71
2023/10/09 10:05:24;;;;;;;14.75;6.32;;;;;;;;;;5030487;28;20053;-71
2023/10/09 10:07:55;;;;;;;17.83;7.28;;;;;;;;;;5035975;28;20056;-71
2023/10/09 10:10:47;;;;;;;13.55;5.43;;;;;;;;;;5028971;28;20021;-71
2023/10/09 10:13:15;;;;;;;10.73;5.25;;;;;;;;;;5029244;28;20546;-71
2023/10/09 10:16:08;;;;;;;18.48;7.35;;;;;;;;;;5026951;28;20275;-71
2023/10/09 10:18:51;;;;;;;15.98;5.75;;;;;;;;;;5024236;28;20380;-72
2023/10/09 10:21:33;;;;;;;10.57;5.35;;;;;;;;;;5037772;28;20092;-71
2023/10/09 10:24:12;;;;;;;20.77;5.72;;;;;;;;;;5150251;27;20387;-72
2023/10/09 10:26:37;;;;;;;14.85;5.20;;;;;;;;;;5140468;27;20038;-72
2023/10/09 10:29:33;;;;;;;14.82;5.82;;;;;;;;;;5130228;27;20023;-73
2023/10/09 10:32:08;;;;;;;14.55;5.15;;;;;;;;;;5148280;27;20103;-72
2023/10/09 10:34:55;;;;;;;9.68;4.97;;;;;;;;;;5164723;27;20014;-72
2023/10/09 10:37:22;;;;;;;21.05;4.97;;;;;;;;;;5148437;27;20014;-72
2023/10/09 10:39:50;;;;;;;10.50;4.82;;;;;;;;;;5144739;27;20469;-72
2023/10/09 10:42:33;;;;;;;15.55;4.78;;;;;;;;;;5160476;27;20035;-72
2023/10/09 10:45:02;;;;;;;15.25;4.85;;;;;;;;;;5143506;27;20462;-72
2023/10/09 10:47:34;;;;;;;11.93;5.38;;;;;;;;;;5142690;27;20065;-72
2023/10/09 10:50:07;;;;;;;14.32;5.45;;;;;;;;;;5153291;27;20012;-72
2023/10/09 10:52:41;;;;;;;12.25;5.60;;;;;;;;;;5140935;27;20501;-73
2023/10/09 10:55:48;;;;;;;14.73;5.97;;;;;;;;;;5140436;27;20082;-73
2023/10/09 10:58:23;;;;;;;14.05;5.10;;;;;;;;;;5143203;27;20019;-72
2023/10/09 11:03:35;;;;;;;11.80;5.15;;;;;;;;;;5147029;27;20030;-72
2023/10/09 11:06:12;;;;;;;10.50;5.30;;;;;;;;;;5148180;27;20040;-72
2023/10/09 11:08:43;;;;;;;23.77;5.70;;;;;;;;;;5160403;27;20586;-73
2023/10/09 11:11:15;;;;;;;10.90;4.40;;;;;;;;;;5140870;27;20066;-73
2023/10/09 11:13:53;;;;;;;19.38;5.00;;;;;;;;;;5142592;27;20030;-73
2023/10/09 11:19:22;;;;;;;14.02;4.63;;;;;;;;;;5150836;27;20069;-73
2023/10/09 11:21:53;;;;;;;23.23;4.88;;;;;;;;;;5161081;27;20042;-72
2023/10/09 11:24:24;;;;;;;12.70;4.82;;;;;;;;;;5142558;27;20011;-73
2023/10/09 11:26:55;;;;;;;11.15;5.05;;;;;;;;;;5147105;27;20046;-72
2023/10/09 11:29:23;;;;;;;15.50;5.07;;;;;;;;;;5142132;27;20025;-72
2023/10/09 11:31:59;;;;;;;14.00;5.07;;;;;;;;;;5156953;27;20019;-72
2023/10/09 11:34:35;;;;;;;11.98;4.75;;;;;;;;;;5145556;27;20015;-72
2023/10/09 11:37:12;;;;;;;9.30;4.30;;;;;;;;;;5139678;27;20019;-72
2023/10/09 11:39:50;;;;;;;11.57;5.13;;;;;;;;;;5129649;27;20466;-72
2023/10/09 11:42:35;;;;;;;14.63;4.90;;;;;;;;;;5130156;27;20338;-73
2023/10/09 11:45:04;;;;;;;15.05;5.20;;;;;;;;;;5138908;27;20027;-72
2023/10/09 11:47:34;;;;;;;21.70;5.18;;;;;;;;;;5133450;27;20354;-73
2023/10/09 11:52:35;;;;;;;11.20;4.65;;;;;;;;;;5148087;27;20057;-72
2023/10/09 11:55:00;;;;;;;14.18;5.90;;;;;;;;;;5120790;27;20080;-72
2023/10/09 11:57:33;;;;;;;15.23;5.72;;;;;;;;;;5137128;27;20369;-72
2023/10/09 11:59:59;;;;;;;15.38;6.63;;;;;;;;;;5141089;27;20473;-73
2023/10/09 12:02:25;;;;;;;21.70;7.20;;;;;;;;;;5140499;27;20015;-73
2023/10/09 12:04:50;;;;;;;21.45;6.45;;;;;;;;;;5138395;27;20447;-72
2023/10/09 12:07:15;;;;;;;22.05;5.55;;;;;;;;;;5131423;27;20019;-72
2023/10/09 12:09:40;;;;;;;12.97;5.27;;;;;;;;;;5126200;27;20040;-73
2023/10/09 12:12:07;;;;;;;12.50;5.67;;;;;;;;;;5124206;27;20325;-73
2023/10/09 12:14:37;;;;;;;12.52;5.35;;;;;;;;;;5131410;27;20023;-72
2023/10/09 12:17:05;;;;;;;14.93;5.53;;;;;;;;;;5130465;27;20034;-72
2023/10/09 12:19:33;;;;;;;13.90;6.22;;;;;;;;;;5128565;27;20019;-72
2023/10/09 12:22:00;;;;;;;13.90;5.68;;;;;;;;;;5130448;27;20019;-73
2023/10/09 12:24:26;;;;;;;15.32;6.45;;;;;;;;;;5132744;27;20392;-73
2023/10/09 12:26:53;;;;;;;15.32;5.97;;;;;;;;;;5136112;27;20023;-73
2023/10/09 12:29:19;;;;;;;18.85;6.10;;;;;;;;;;5125212;27;20020;-72
2023/10/09 12:31:45;;;;;;;18.30;6.07;;;;;;;;;;5128486;27;20458;-72
2023/10/09 12:34:14;;;;;;;17.85;5.70;;;;;;;;;;5131297;27;20073;-72
2023/10/09 12:36:43;;;;;;;17.30;5.95;;;;;;;;;;5138129;27;20152;-72
2023/10/09 12:39:17;;;;;;;15.65;5.85;;;;;;;;;;5138069;27;20038;-73
2023/10/09 12:41:42;;;;;;;17.67;5.88;;;;;;;;;;5118586;27;20378;-73
2023/10/09 12:44:14;;;;;;;15.93;6.17;;;;;;;;;;5120285;27;20019;-73
2023/10/09 12:46:39;;;;;;;16.40;6.30;;;;;;;;;;5124656;27;20026;-73
2023/10/09 12:49:05;;;;;;;18.10;6.05;;;;;;;;;;5122146;27;20019;-74
2023/10/09 12:51:31;;;;;;;20.13;6.43;;;;;;;;;;5122878;27;20519;-73
2023/10/09 12:54:01;;;;;;;22.48;6.93;;;;;;;;;;5120935;27;20031;-74
2023/10/09 12:56:38;;;;;;;;;;;;;;;;;;5120637;27;20381;-73
2023/10/09 12:59:07;;;;;;;15.98;6.45;;;;;;;;;;5119386;27;19918;-74
2023/10/09 13:01:32;;;;;;;15.23;6.60;;;;;;;;;;5124374;27;20030;-73
2023/10/09 13:03:59;;;;;;;36.17;7.80;;;;;;;;;;5120959;27;20019;-73
2023/10/09 13:06:25;;;;;;;21.27;8.30;;;;;;;;;;5118436;27;20020;-73
2023/10/09 13:08:51;;;;;;;18.50;6.00;;;;;;;;;;5124877;27;20091;-74
2023/10/09 13:11:17;;;;;;;17.40;6.95;;;;;;;;;;5127164;27;20068;-73
2023/10/09 13:13:43;;;;;;;22.08;6.70;;;;;;;;;;5131651;27;20026;-73
2023/10/09 13:16:24;;;;;;;18.95;7.45;;;;;;;;;;5131692;27;20385;-73
2023/10/09 13:18:52;;;;;;;16.25;6.63;;;;;;;;;;5131271;27;20021;-73
2023/10/09 13:21:17;;;;;;;14.32;6.57;;;;;;;;;;5133504;27;20133;-73
2023/10/09 13:23:46;;;;;;;19.50;6.87;;;;;;;;;;5129256;27;20043;-74
2023/10/09 13:26:17;;;;;;;18.33;6.93;;;;;;;;;;5125952;27;20268;-73
2023/10/09 13:28:46;;;;;;;18.73;7.20;;;;;;;;;;5130511;27;20011;-73
2023/10/09 13:31:14;;;;;;;18.10;7.07;;;;;;;;;;5131349;27;20274;-74
2023/10/09 13:33:40;;;;;;;20.10;6.63;;;;;;;;;;5130202;27;20019;-74
2023/10/09 13:36:16;;;;;;;15.57;6.68;;;;;;;;;;5131117;27;20030;-73
2023/10/09 13:38:43;;;;;;;12.00;5.72;;;;;;;;;;5129517;27;20079;-73
2023/10/09 13:41:12;;;;;;;17.63;7.20;;;;;;;;;;5124597;27;20015;-74
2023/10/09 13:43:40;;;;;;;15.65;6.93;;;;;;;;;;5126694;27;20016;-74
2023/10/09 13:46:05;;;;;;;13.00;6.03;;;;;;;;;;5128437;27;20019;-73
2023/10/09 13:48:37;;;;;;;16.20;6.50;;;;;;;;;;5130934;27;20023;-73
2023/10/09 13:51:07;;;;;;;15.65;7.05;;;;;;;;;;5125903;27;20132;-73
2023/10/09 13:53:32;;;;;;;14.47;7.10;;;;;;;;;;5120995;27;20011;-73
2023/10/09 13:55:58;;;;;;;16.23;7.20;;;;;;;;;;5122335;27;20336;-74
2023/10/09 13:58:23;;;;;;;19.88;6.95;;;;;;;;;;5123569;27;20076;-74
2023/10/09 14:00:50;;;;;;;21.98;8.13;;;;;;;;;;5119408;27;20493;-74
2023/10/09 14:03:19;;;;;;;19.85;7.55;;;;;;;;;;5132827;27;20011;-74
2023/10/09 14:05:54;;;;;;;26.65;8.05;;;;;;;;;;5116718;27;20058;-74
2023/10/09 14:08:21;;;;;;;17.65;7.32;;;;;;;;;;5119354;27;20019;-74
2023/10/09 14:10:48;;;;;;;23.15;7.10;;;;;;;;;;5116275;27;20084;-74
2023/10/09 14:13:14;;;;;;;18.35;7.03;;;;;;;;;;5123548;27;20014;-74
2023/10/09 14:15:41;;;;;;;19.48;6.75;;;;;;;;;;5123927;27;20019;-74
2023/10/09 14:18:08;;;;;;;19.15;7.65;;;;;;;;;;5126486;27;20406;-74
2023/10/09 14:20:34;;;;;;;16.88;6.63;;;;;;;;;;5127811;27;20068;-74
2023/10/09 14:23:06;;;;;;;17.67;6.70;;;;;;;;;;5126344;27;20030;-74
2023/10/09 14:25:31;;;;;;;17.33;7.18;;;;;;;;;;5120083;27;20023;-74
2023/10/09 14:27:57;;;;;;;20.30;7.32;;;;;;;;;;5117476;27;20030;-74
2023/10/09 14:30:30;;;;;;;14.32;6.43;;;;;;;;;;5116337;27;20030;-74
2023/10/09 14:32:56;;;;;;;20.08;7.20;;;;;;;;;;5124027;27;20031;-74
2023/10/09 14:35:26;;;;;;;12.57;6.43;;;;;;;;;;5125110;27;20493;-74
2023/10/09 14:37:51;;;;;;;15.95;7.72;;;;;;;;;;5129198;27;20024;-74
2023/10/09 14:40:20;;;;;;;20.13;6.85;;;;;;;;;;5126431;27;20425;-74
2023/10/09 14:42:46;;;;;;;17.63;6.47;;;;;;;;;;5126209;27;20054;-74
2023/10/09 14:45:15;;;;;;;26.20;7.00;;;;;;;;;;5130601;27;20051;-74
2023/10/09 14:47:43;;;;;;;16.58;6.95;;;;;;;;;;5128215;27;20063;-74
2023/10/09 14:50:09;;;;;;;13.20;7.10;;;;;;;;;;5133403;27;20019;-74
2023/10/09 14:52:38;;;;;;;18.17;6.80;;;;;;;;;;5126992;27;20021;-74
2023/10/09 14:55:05;;;;;;;20.90;7.85;;;;;;;;;;5123120;27;20034;-74
2023/10/09 14:57:33;;;;;;;15.93;6.82;;;;;;;;;;5113874;27;20024;-74
2023/10/09 14:59:59;;;;;;;14.68;7.10;;;;;;;;;;5128660;27;20034;-74
2023/10/09 15:02:24;;;;;;;13.38;6.60;;;;;;;;;;5132763;27;20014;-74
2023/10/09 15:04:49;;;;;;;19.77;8.25;;;;;;;;;;5136092;27;20019;-74
2023/10/09 15:07:15;;;;;;;15.80;7.43;;;;;;;;;;5130672;27;20032;-74
2023/10/09 15:09:41;;;;;;;15.82;7.18;;;;;;;;;;5122143;27;20016;-74
2023/10/09 15:12:06;;;;;;;15.15;7.05;;;;;;;;;;5129432;27;20015;-74
2023/10/09 15:14:32;;;;;;;20.55;6.88;;;;;;;;;;5137874;27;20098;-74
2023/10/09 15:16:57;;;;;;;15.93;6.95;;;;;;;;;;5135406;27;20029;-74
2023/10/09 15:19:29;;;;;;;17.83;6.25;;;;;;;;;;5139587;27;20488;-74
2023/10/09 15:21:54;;;;;;;18.25;7.30;;;;;;;;;;5128840;27;20019;-74
2023/10/09 15:24:20;;;;;;;13.27;6.38;;;;;;;;;;5123166;27;20470;-74
2023/10/09 15:26:52;;;;;;;15.52;6.35;;;;;;;;;;5133646;27;20477;-74
2023/10/09 15:29:19;;;;;;;18.73;6.40;;;;;;;;;;5130813;27;20473;-74
2023/10/09 15:31:46;;;;;;;13.02;6.78;;;;;;;;;;5130684;27;20053;-74
2023/10/09 15:34:12;;;;;;;14.70;6.45;;;;;;;;;;5131499;27;20107;-74
2023/10/09 15:36:37;;;;;;;15.50;6.28;;;;;;;;;;5129686;27;20458;-74
2023/10/09 15:39:03;;;;;;;18.98;6.95;;;;;;;;;;5137626;27;20350;-74
2023/10/09 15:41:32;;;;;;;14.50;5.32;;;;;;;;;;5128975;27;20044;-74
2023/10/09 15:43:57;;;;;;;15.98;6.47;;;;;;;;;;5129005;27;20397;-74
2023/10/09 15:46:22;;;;;;;14.13;5.82;;;;;;;;;;5137730;27;20003;-74
2023/10/09 15:48:48;;;;;;;16.03;6.20;;;;;;;;;;5132249;27;20019;-74
2023/10/09 15:51:14;;;;;;;11.63;5.70;;;;;;;;;;5138156;27;20019;-74
2023/10/09 15:53:40;;;;;;;17.55;8.48;;;;;;;;;;5123624;27;20046;-74
2023/10/09 15:56:07;;;;;;;18.92;6.93;;;;;;;;;;5131979;27;20023;-74
2023/10/09 15:58:32;;;;;;;20.30;6.43;;;;;;;;;;5130720;27;20023;-74
2023/10/09 16:00:58;;;;;;;15.05;6.18;;;;;;;;;;5134770;27;20028;-74
2023/10/09 16:03:27;;;;;;;16.02;6.32;;;;;;;;;;5125938;27;20022;-74
2023/10/09 16:05:52;;;;;;;14.82;7.15;;;;;;;;;;5123955;27;20090;-74
2023/10/09 16:08:19;;;;;;;17.52;6.50;;;;;;;;;;5129420;27;20116;-74
2023/10/09 16:10:46;;;;;;;17.83;6.70;;;;;;;;;;5121710;27;20016;-74
2023/10/09 16:13:12;;;;;;;17.45;7.40;;;;;;;;;;5122636;27;20015;-74
2023/10/09 16:15:41;;;;;;;14.48;6.97;;;;;;;;;;5119059;27;20045;-74
2023/10/09 16:18:06;;;;;;;15.95;6.60;;;;;;;;;;5130868;27;20014;-74
2023/10/09 16:20:32;;;;;;;18.60;7.07;;;;;;;;;;5122699;27;20022;-74
2023/10/09 16:22:59;;;;;;;22.42;7.15;;;;;;;;;;5120977;27;21846;-74
2023/10/09 16:25:26;;;;;;;16.13;6.70;;;;;;;;;;5121648;27;20039;-74
2023/10/09 16:27:52;;;;;;;22.15;7.07;;;;;;;;;;5119952;27;20478;-74
2023/10/09 16:30:21;;;;;;;14.32;6.57;;;;;;;;;;5122776;27;20022;-74
2023/10/09 16:32:46;;;;;;;10.63;5.95;;;;;;;;;;5119877;27;20389;-74
2023/10/09 16:35:12;;;;;;;20.83;6.70;;;;;;;;;;5133958;27;20019;-74
2023/10/09 16:37:37;;;;;;;14.95;7.15;;;;;;;;;;5132953;27;20046;-74
2023/10/09 16:40:06;;;;;;;18.67;6.30;;;;;;;;;;5129557;27;20118;-74
2023/10/09 16:42:35;;;;;;;17.13;6.53;;;;;;;;;;5123296;27;20426;-74